sensor_id;sensor_type;location;lat;lon;timestamp;temperature;humidity
21214;DHT22;10764;50.850;2.904;2023-08-06T00:00:56;23.40;59.90
21214;DHT22;10764;50.850;2.904;2023-08-06T00:03:23;23.50;59.80
21214;DHT22;10764;50.850;2.904;2023-08-06T00:05:50;23.40;59.70
21214;DHT22;10764;50.850;2.904;2023-08-06T00:08:17;23.00;59.60
21214;DHT22;10764;50.850;2.904;2023-08-06T00:10:44;23.50;60.00
21214;DHT22;10764;50.850;2.904;2023-08-06T00:13:12;23.70;60.20
21214;DHT22;10764;50.850;2.904;2023-08-06T00:15:39;23.80;60.10
21214;DHT22;10764;50.850;2.904;2023-08-06T00:18:06;23.50;60.00
21214;DHT22;10764;50.850;2.904;2023-08-06T00:20:33;23.20;59.90
21214;DHT22;10764;50.850;2.904;2023-08-06T00:22:59;23.50;60.10
21214;DHT22;10764;50.850;2.904;2023-08-06T00:25:26;23.30;59.90
21214;DHT22;10764;50.850;2.904;2023-08-06T00:27:53;23.50;60.20
21214;DHT22;10764;50.850;2.904;2023-08-06T00:30:21;23.50;60.10
21214;DHT22;10764;50.850;2.904;2023-08-06T00:32:49;23.40;59.90
21214;DHT22;10764;50.850;2.904;2023-08-06T00:35:17;23.30;60.10
21214;DHT22;10764;50.850;2.904;2023-08-06T00:37:44;23.40;60.10
21214;DHT22;10764;50.850;2.904;2023-08-06T00:40:11;23.40;58.90
21214;DHT22;10764;50.850;2.904;2023-08-06T00:42:37;23.20;59.60
21214;DHT22;10764;50.850;2.904;2023-08-06T00:45:05;23.30;59.90
21214;DHT22;10764;50.850;2.904;2023-08-06T00:47:32;23.40;59.00
21214;DHT22;10764;50.850;2.904;2023-08-06T00:49:59;23.50;59.80
21214;DHT22;10764;50.850;2.904;2023-08-06T00:52:27;23.30;60.00
21214;DHT22;10764;50.850;2.904;2023-08-06T00:54:54;23.50;60.10
21214;DHT22;10764;50.850;2.904;2023-08-06T00:57:24;23.40;60.00
21214;DHT22;10764;50.850;2.904;2023-08-06T00:59:53;23.60;60.10
21214;DHT22;10764;50.850;2.904;2023-08-06T01:02:20;23.40;59.90
21214;DHT22;10764;50.850;2.904;2023-08-06T01:04:47;23.70;60.10
21214;DHT22;10764;50.850;2.904;2023-08-06T01:07:46;23.50;59.90
21214;DHT22;10764;50.850;2.904;2023-08-06T01:13:24;23.80;57.70
21214;DHT22;10764;50.850;2.904;2023-08-06T01:15:55;24.00;60.50
21214;DHT22;10764;50.850;2.904;2023-08-06T01:18:26;23.50;60.20
21214;DHT22;10764;50.850;2.904;2023-08-06T01:20:53;23.30;60.00
21214;DHT22;10764;50.850;2.904;2023-08-06T01:23:20;23.70;60.40
21214;DHT22;10764;50.850;2.904;2023-08-06T01:31:43;23.30;60.30
21214;DHT22;10764;50.850;2.904;2023-08-06T01:34:17;23.60;61.10
21214;DHT22;10764;50.850;2.904;2023-08-06T01:36:45;23.40;60.20
21214;DHT22;10764;50.850;2.904;2023-08-06T01:39:12;23.70;60.30
21214;DHT22;10764;50.850;2.904;2023-08-06T01:41:39;23.60;60.30
21214;DHT22;10764;50.850;2.904;2023-08-06T01:44:05;23.50;60.20
21214;DHT22;10764;50.850;2.904;2023-08-06T01:46:32;23.60;60.40
21214;DHT22;10764;50.850;2.904;2023-08-06T01:48:59;23.40;60.30
21214;DHT22;10764;50.850;2.904;2023-08-06T01:51:26;23.60;60.50
21214;DHT22;10764;50.850;2.904;2023-08-06T01:53:53;23.40;60.10
21214;DHT22;10764;50.850;2.904;2023-08-06T01:56:20;23.50;60.60
21214;DHT22;10764;50.850;2.904;2023-08-06T01:58:47;23.10;60.40
21214;DHT22;10764;50.850;2.904;2023-08-06T02:01:14;23.40;60.60
21214;DHT22;10764;50.850;2.904;2023-08-06T02:03:41;23.40;60.40
21214;DHT22;10764;50.850;2.904;2023-08-06T02:06:09;23.60;60.60
21214;DHT22;10764;50.850;2.904;2023-08-06T02:08:36;23.70;60.60
21214;DHT22;10764;50.850;2.904;2023-08-06T02:11:03;23.80;60.50
21214;DHT22;10764;50.850;2.904;2023-08-06T02:13:30;23.70;60.20
21214;DHT22;10764;50.850;2.904;2023-08-06T02:15:57;23.20;60.10
21214;DHT22;10764;50.850;2.904;2023-08-06T02:18:24;23.50;60.60
21214;DHT22;10764;50.850;2.904;2023-08-06T02:21:00;23.70;60.30
21214;DHT22;10764;50.850;2.904;2023-08-06T02:23:28;23.40;60.10
21214;DHT22;10764;50.850;2.904;2023-08-06T02:26:02;23.60;59.90
21214;DHT22;10764;50.850;2.904;2023-08-06T02:28:30;23.50;60.20
21214;DHT22;10764;50.850;2.904;2023-08-06T02:30:57;23.60;59.90
21214;DHT22;10764;50.850;2.904;2023-08-06T02:33:24;23.20;60.00
21214;DHT22;10764;50.850;2.904;2023-08-06T02:35:51;23.10;59.80
21214;DHT22;10764;50.850;2.904;2023-08-06T02:38:25;23.60;60.00
21214;DHT22;10764;50.850;2.904;2023-08-06T02:40:51;23.60;60.00
21214;DHT22;10764;50.850;2.904;2023-08-06T02:43:18;23.60;59.80
21214;DHT22;10764;50.850;2.904;2023-08-06T02:45:46;23.50;60.00
21214;DHT22;10764;50.850;2.904;2023-08-06T02:48:13;23.60;60.20
21214;DHT22;10764;50.850;2.904;2023-08-06T02:50:41;23.10;59.70
21214;DHT22;10764;50.850;2.904;2023-08-06T02:53:08;23.50;59.80
21214;DHT22;10764;50.850;2.904;2023-08-06T02:55:36;23.50;60.00
21214;DHT22;10764;50.850;2.904;2023-08-06T02:58:10;23.60;59.90
21214;DHT22;10764;50.850;2.904;2023-08-06T03:00:41;23.10;59.50
21214;DHT22;10764;50.850;2.904;2023-08-06T03:03:09;23.80;59.80
21214;DHT22;10764;50.850;2.904;2023-08-06T03:05:53;23.80;59.80
21214;DHT22;10764;50.850;2.904;2023-08-06T03:08:29;23.80;59.90
21214;DHT22;10764;50.850;2.904;2023-08-06T03:10:56;23.50;59.80
21214;DHT22;10764;50.850;2.904;2023-08-06T03:13:23;23.50;59.70
21214;DHT22;10764;50.850;2.904;2023-08-06T03:15:57;23.50;59.70
21214;DHT22;10764;50.850;2.904;2023-08-06T03:18:25;23.20;57.30
21214;DHT22;10764;50.850;2.904;2023-08-06T03:20:57;23.80;58.20
21214;DHT22;10764;50.850;2.904;2023-08-06T03:23:28;23.70;59.80
21214;DHT22;10764;50.850;2.904;2023-08-06T03:25:55;23.60;59.70
21214;DHT22;10764;50.850;2.904;2023-08-06T03:28:21;23.30;59.60
21214;DHT22;10764;50.850;2.904;2023-08-06T03:31:01;23.60;59.50
21214;DHT22;10764;50.850;2.904;2023-08-06T03:33:35;23.50;59.40
21214;DHT22;10764;50.850;2.904;2023-08-06T03:36:06;23.50;59.40
21214;DHT22;10764;50.850;2.904;2023-08-06T03:38:34;23.90;59.60
21214;DHT22;10764;50.850;2.904;2023-08-06T03:41:04;23.30;59.30
21214;DHT22;10764;50.850;2.904;2023-08-06T03:43:31;23.50;59.50
21214;DHT22;10764;50.850;2.904;2023-08-06T03:45:58;23.30;59.50
21214;DHT22;10764;50.850;2.904;2023-08-06T03:48:25;23.30;59.50
21214;DHT22;10764;50.850;2.904;2023-08-06T03:50:52;23.60;59.50
21214;DHT22;10764;50.850;2.904;2023-08-06T03:53:19;23.50;59.70
21214;DHT22;10764;50.850;2.904;2023-08-06T03:55:46;23.60;59.10
21214;DHT22;10764;50.850;2.904;2023-08-06T03:58:13;23.50;59.00
21214;DHT22;10764;50.850;2.904;2023-08-06T04:00:41;23.50;59.10
21214;DHT22;10764;50.850;2.904;2023-08-06T04:03:08;23.60;59.30
21214;DHT22;10764;50.850;2.904;2023-08-06T04:05:35;23.60;58.90
21214;DHT22;10764;50.850;2.904;2023-08-06T04:08:02;21.20;57.90
21214;DHT22;10764;50.850;2.904;2023-08-06T04:10:30;23.50;58.90
21214;DHT22;10764;50.850;2.904;2023-08-06T04:12:57;23.70;59.20
21214;DHT22;10764;50.850;2.904;2023-08-06T04:15:23;23.70;59.10
21214;DHT22;10764;50.850;2.904;2023-08-06T04:17:50;23.50;58.90
21214;DHT22;10764;50.850;2.904;2023-08-06T04:20:17;23.40;58.80
21214;DHT22;10764;50.850;2.904;2023-08-06T04:22:44;23.60;58.90
21214;DHT22;10764;50.850;2.904;2023-08-06T04:25:11;23.40;58.80
21214;DHT22;10764;50.850;2.904;2023-08-06T04:27:38;23.60;58.90
21214;DHT22;10764;50.850;2.904;2023-08-06T04:30:09;23.30;58.60
21214;DHT22;10764;50.850;2.904;2023-08-06T04:32:39;23.50;57.90
21214;DHT22;10764;50.850;2.904;2023-08-06T04:35:06;23.60;58.60
21214;DHT22;10764;50.850;2.904;2023-08-06T04:37:34;23.60;58.60
21214;DHT22;10764;50.850;2.904;2023-08-06T04:40:01;23.30;58.60
21214;DHT22;10764;50.850;2.904;2023-08-06T04:42:28;23.70;58.50
21214;DHT22;10764;50.850;2.904;2023-08-06T04:44:56;23.60;58.40
21214;DHT22;10764;50.850;2.904;2023-08-06T04:47:22;23.50;58.60
21214;DHT22;10764;50.850;2.904;2023-08-06T04:49:49;23.80;58.50
21214;DHT22;10764;50.850;2.904;2023-08-06T04:52:16;23.50;58.80
21214;DHT22;10764;50.850;2.904;2023-08-06T04:54:43;23.50;58.80
21214;DHT22;10764;50.850;2.904;2023-08-06T04:57:10;23.20;58.50
21214;DHT22;10764;50.850;2.904;2023-08-06T04:59:37;23.30;58.30
21214;DHT22;10764;50.850;2.904;2023-08-06T05:02:04;23.40;58.40
21214;DHT22;10764;50.850;2.904;2023-08-06T05:04:31;23.50;58.40
21214;DHT22;10764;50.850;2.904;2023-08-06T05:06:58;23.40;58.70
21214;DHT22;10764;50.850;2.904;2023-08-06T05:09:24;23.50;58.80
21214;DHT22;10764;50.850;2.904;2023-08-06T05:11:51;23.60;58.60
21214;DHT22;10764;50.850;2.904;2023-08-06T05:14:18;23.20;58.70
21214;DHT22;10764;50.850;2.904;2023-08-06T05:16:45;23.40;58.90
21214;DHT22;10764;50.850;2.904;2023-08-06T05:19:12;23.70;59.00
21214;DHT22;10764;50.850;2.904;2023-08-06T05:21:39;23.00;58.60
21214;DHT22;10764;50.850;2.904;2023-08-06T05:24:06;23.10;58.70
21214;DHT22;10764;50.850;2.904;2023-08-06T05:26:32;23.20;58.60
21214;DHT22;10764;50.850;2.904;2023-08-06T05:29:00;23.60;58.90
21214;DHT22;10764;50.850;2.904;2023-08-06T05:31:27;23.10;58.60
21214;DHT22;10764;50.850;2.904;2023-08-06T05:33:55;23.00;58.60
21214;DHT22;10764;50.850;2.904;2023-08-06T05:36:22;23.40;58.80
21214;DHT22;10764;50.850;2.904;2023-08-06T05:38:49;23.50;58.70
21214;DHT22;10764;50.850;2.904;2023-08-06T05:41:16;23.20;58.60
21214;DHT22;10764;50.850;2.904;2023-08-06T05:43:43;23.50;58.60
21214;DHT22;10764;50.850;2.904;2023-08-06T05:46:09;23.60;58.60
21214;DHT22;10764;50.850;2.904;2023-08-06T05:48:36;23.40;58.80
21214;DHT22;10764;50.850;2.904;2023-08-06T05:51:03;23.60;58.70
21214;DHT22;10764;50.850;2.904;2023-08-06T05:53:30;23.60;59.70
21214;DHT22;10764;50.850;2.904;2023-08-06T05:55:57;22.60;58.10
21214;DHT22;10764;50.850;2.904;2023-08-06T05:58:24;23.60;57.80
21214;DHT22;10764;50.850;2.904;2023-08-06T06:00:52;23.80;58.50
21214;DHT22;10764;50.850;2.904;2023-08-06T06:03:19;23.60;58.50
21214;DHT22;10764;50.850;2.904;2023-08-06T06:05:46;23.60;58.20
21214;DHT22;10764;50.850;2.904;2023-08-06T06:08:13;23.70;58.50
21214;DHT22;10764;50.850;2.904;2023-08-06T06:10:40;23.60;58.50
21214;DHT22;10764;50.850;2.904;2023-08-06T06:13:07;23.50;58.50
21214;DHT22;10764;50.850;2.904;2023-08-06T06:15:36;23.70;58.20
21214;DHT22;10764;50.850;2.904;2023-08-06T06:18:03;23.60;57.90
21214;DHT22;10764;50.850;2.904;2023-08-06T06:20:32;23.60;58.10
21214;DHT22;10764;50.850;2.904;2023-08-06T06:22:58;23.60;58.40
21214;DHT22;10764;50.850;2.904;2023-08-06T06:25:25;23.60;58.00
21214;DHT22;10764;50.850;2.904;2023-08-06T06:27:52;23.70;58.30
21214;DHT22;10764;50.850;2.904;2023-08-06T06:30:19;23.90;58.10
21214;DHT22;10764;50.850;2.904;2023-08-06T06:32:46;23.90;58.20
21214;DHT22;10764;50.850;2.904;2023-08-06T06:35:13;23.60;58.00
21214;DHT22;10764;50.850;2.904;2023-08-06T06:37:39;23.70;58.00
21214;DHT22;10764;50.850;2.904;2023-08-06T06:40:07;23.60;57.60
21214;DHT22;10764;50.850;2.904;2023-08-06T06:42:34;23.70;57.30
21214;DHT22;10764;50.850;2.904;2023-08-06T06:45:01;23.70;58.00
21214;DHT22;10764;50.850;2.904;2023-08-06T06:47:29;23.60;57.60
21214;DHT22;10764;50.850;2.904;2023-08-06T06:49:55;24.10;58.20
21214;DHT22;10764;50.850;2.904;2023-08-06T06:52:22;23.60;57.90
21214;DHT22;10764;50.850;2.904;2023-08-06T06:54:49;23.60;57.60
21214;DHT22;10764;50.850;2.904;2023-08-06T06:57:16;23.80;57.90
21214;DHT22;10764;50.850;2.904;2023-08-06T06:59:43;23.80;58.10
21214;DHT22;10764;50.850;2.904;2023-08-06T07:02:10;23.90;58.00
21214;DHT22;10764;50.850;2.904;2023-08-06T07:04:36;23.80;57.70
21214;DHT22;10764;50.850;2.904;2023-08-06T07:07:03;23.80;58.30
21214;DHT22;10764;50.850;2.904;2023-08-06T07:09:30;23.80;58.10
21214;DHT22;10764;50.850;2.904;2023-08-06T07:11:57;23.90;58.40
21214;DHT22;10764;50.850;2.904;2023-08-06T07:14:28;23.80;58.10
21214;DHT22;10764;50.850;2.904;2023-08-06T07:16:55;23.90;58.30
21214;DHT22;10764;50.850;2.904;2023-08-06T07:19:23;23.60;58.40
21214;DHT22;10764;50.850;2.904;2023-08-06T07:21:50;23.90;58.10
21214;DHT22;10764;50.850;2.904;2023-08-06T07:24:18;23.90;58.90
21214;DHT22;10764;50.850;2.904;2023-08-06T07:26:44;23.70;58.70
21214;DHT22;10764;50.850;2.904;2023-08-06T07:29:11;24.00;59.50
21214;DHT22;10764;50.850;2.904;2023-08-06T07:31:39;24.00;60.10
21214;DHT22;10764;50.850;2.904;2023-08-06T07:34:06;23.70;60.90
21214;DHT22;10764;50.850;2.904;2023-08-06T07:36:33;23.80;61.70
21214;DHT22;10764;50.850;2.904;2023-08-06T07:39:00;23.70;61.30
21214;DHT22;10764;50.850;2.904;2023-08-06T07:41:27;23.90;60.90
21214;DHT22;10764;50.850;2.904;2023-08-06T07:43:54;24.10;61.00
21214;DHT22;10764;50.850;2.904;2023-08-06T07:46:20;23.90;60.10
21214;DHT22;10764;50.850;2.904;2023-08-06T07:48:47;24.10;61.10
21214;DHT22;10764;50.850;2.904;2023-08-06T07:51:14;23.90;60.00
21214;DHT22;10764;50.850;2.904;2023-08-06T07:53:41;23.70;59.70
21214;DHT22;10764;50.850;2.904;2023-08-06T07:56:08;23.70;60.00
21214;DHT22;10764;50.850;2.904;2023-08-06T07:58:35;23.80;60.50
21214;DHT22;10764;50.850;2.904;2023-08-06T08:01:02;23.80;61.60
21214;DHT22;10764;50.850;2.904;2023-08-06T08:03:31;23.50;60.80
21214;DHT22;10764;50.850;2.904;2023-08-06T08:05:58;23.70;60.90
21214;DHT22;10764;50.850;2.904;2023-08-06T08:08:25;23.90;60.60
21214;DHT22;10764;50.850;2.904;2023-08-06T08:10:52;23.90;59.80
21214;DHT22;10764;50.850;2.904;2023-08-06T08:13:19;23.70;61.50
21214;DHT22;10764;50.850;2.904;2023-08-06T08:15:45;23.90;62.40
21214;DHT22;10764;50.850;2.904;2023-08-06T08:18:13;23.80;62.50
21214;DHT22;10764;50.850;2.904;2023-08-06T08:20:39;23.70;62.30
21214;DHT22;10764;50.850;2.904;2023-08-06T08:23:06;23.90;61.60
21214;DHT22;10764;50.850;2.904;2023-08-06T08:25:33;23.70;63.90
21214;DHT22;10764;50.850;2.904;2023-08-06T08:28:00;23.60;63.60
21214;DHT22;10764;50.850;2.904;2023-08-06T08:30:27;24.10;61.40
21214;DHT22;10764;50.850;2.904;2023-08-06T08:32:54;24.10;62.70
21214;DHT22;10764;50.850;2.904;2023-08-06T08:35:21;24.10;60.90
21214;DHT22;10764;50.850;2.904;2023-08-06T08:37:48;23.50;60.70
21214;DHT22;10764;50.850;2.904;2023-08-06T08:40:15;23.40;60.60
21214;DHT22;10764;50.850;2.904;2023-08-06T08:42:43;23.80;61.90
21214;DHT22;10764;50.850;2.904;2023-08-06T08:45:14;23.70;62.40
21214;DHT22;10764;50.850;2.904;2023-08-06T08:47:44;23.70;61.00
21214;DHT22;10764;50.850;2.904;2023-08-06T08:50:14;23.60;61.30
21214;DHT22;10764;50.850;2.904;2023-08-06T08:52:42;23.80;61.20
21214;DHT22;10764;50.850;2.904;2023-08-06T08:55:12;23.80;61.10
21214;DHT22;10764;50.850;2.904;2023-08-06T08:57:40;23.90;61.20
21214;DHT22;10764;50.850;2.904;2023-08-06T09:00:08;24.00;60.90
21214;DHT22;10764;50.850;2.904;2023-08-06T09:02:36;23.60;60.00
21214;DHT22;10764;50.850;2.904;2023-08-06T09:05:05;23.50;59.60
21214;DHT22;10764;50.850;2.904;2023-08-06T09:07:35;23.70;60.40
21214;DHT22;10764;50.850;2.904;2023-08-06T09:10:03;23.70;60.40
21214;DHT22;10764;50.850;2.904;2023-08-06T09:12:32;23.80;58.90
21214;DHT22;10764;50.850;2.904;2023-08-06T09:14:59;23.70;60.10
21214;DHT22;10764;50.850;2.904;2023-08-06T09:17:26;24.00;60.30
21214;DHT22;10764;50.850;2.904;2023-08-06T09:19:55;23.80;60.30
21214;DHT22;10764;50.850;2.904;2023-08-06T09:22:22;23.80;60.20
21214;DHT22;10764;50.850;2.904;2023-08-06T09:24:49;23.70;60.40
21214;DHT22;10764;50.850;2.904;2023-08-06T09:27:16;23.60;60.00
21214;DHT22;10764;50.850;2.904;2023-08-06T09:29:44;23.50;59.80
21214;DHT22;10764;50.850;2.904;2023-08-06T09:32:12;23.70;60.40
21214;DHT22;10764;50.850;2.904;2023-08-06T09:34:41;24.00;60.40
21214;DHT22;10764;50.850;2.904;2023-08-06T09:37:09;23.90;60.60
21214;DHT22;10764;50.850;2.904;2023-08-06T09:39:39;24.10;60.60
21214;DHT22;10764;50.850;2.904;2023-08-06T09:42:07;23.70;60.30
21214;DHT22;10764;50.850;2.904;2023-08-06T09:44:34;23.70;60.00
21214;DHT22;10764;50.850;2.904;2023-08-06T09:47:03;23.90;60.40
21214;DHT22;10764;50.850;2.904;2023-08-06T09:52:00;23.60;60.30
21214;DHT22;10764;50.850;2.904;2023-08-06T09:54:27;23.80;60.00
21214;DHT22;10764;50.850;2.904;2023-08-06T09:56:56;23.70;59.90
21214;DHT22;10764;50.850;2.904;2023-08-06T09:59:24;23.70;60.00
21214;DHT22;10764;50.850;2.904;2023-08-06T10:01:54;23.40;59.20
21214;DHT22;10764;50.850;2.904;2023-08-06T10:04:23;23.60;59.90
21214;DHT22;10764;50.850;2.904;2023-08-06T10:06:56;24.10;60.00
21214;DHT22;10764;50.850;2.904;2023-08-06T10:09:24;23.90;59.70
21214;DHT22;10764;50.850;2.904;2023-08-06T10:11:51;23.90;59.00
21214;DHT22;10764;50.850;2.904;2023-08-06T10:14:36;23.80;56.40
21214;DHT22;10764;50.850;2.904;2023-08-06T10:17:04;23.80;57.00
21214;DHT22;10764;50.850;2.904;2023-08-06T10:19:32;23.90;59.20
21214;DHT22;10764;50.850;2.904;2023-08-06T10:22:13;24.20;59.60
21214;DHT22;10764;50.850;2.904;2023-08-06T10:24:57;24.00;57.10
21214;DHT22;10764;50.850;2.904;2023-08-06T10:27:36;24.00;59.30
21214;DHT22;10764;50.850;2.904;2023-08-06T10:32:57;24.00;59.20
21214;DHT22;10764;50.850;2.904;2023-08-06T10:37:59;23.70;56.50
21214;DHT22;10764;50.850;2.904;2023-08-06T10:40:26;24.20;58.90
21214;DHT22;10764;50.850;2.904;2023-08-06T10:42:53;24.20;58.70
21214;DHT22;10764;50.850;2.904;2023-08-06T10:45:20;24.10;58.30
21214;DHT22;10764;50.850;2.904;2023-08-06T10:47:47;23.90;58.20
21214;DHT22;10764;50.850;2.904;2023-08-06T10:50:16;23.90;57.40
21214;DHT22;10764;50.850;2.904;2023-08-06T10:52:47;23.80;58.40
21214;DHT22;10764;50.850;2.904;2023-08-06T10:55:21;24.10;57.80
21214;DHT22;10764;50.850;2.904;2023-08-06T10:57:49;24.40;58.50
21214;DHT22;10764;50.850;2.904;2023-08-06T11:00:16;26.00;58.60
21214;DHT22;10764;50.850;2.904;2023-08-06T11:02:43;24.10;58.60
21214;DHT22;10764;50.850;2.904;2023-08-06T11:05:11;24.30;58.60
21214;DHT22;10764;50.850;2.904;2023-08-06T11:07:38;24.00;58.00
21214;DHT22;10764;50.850;2.904;2023-08-06T11:10:08;24.00;57.80
21214;DHT22;10764;50.850;2.904;2023-08-06T11:12:35;24.20;58.10
21214;DHT22;10764;50.850;2.904;2023-08-06T11:15:03;24.10;58.00
21214;DHT22;10764;50.850;2.904;2023-08-06T11:17:32;24.00;57.90
21214;DHT22;10764;50.850;2.904;2023-08-06T11:20:01;23.90;57.70
21214;DHT22;10764;50.850;2.904;2023-08-06T11:22:28;24.00;58.40
21214;DHT22;10764;50.850;2.904;2023-08-06T11:24:55;23.90;58.10
21214;DHT22;10764;50.850;2.904;2023-08-06T11:27:22;23.90;58.10
21214;DHT22;10764;50.850;2.904;2023-08-06T11:29:49;24.10;58.30
21214;DHT22;10764;50.850;2.904;2023-08-06T11:32:16;24.00;58.30
21214;DHT22;10764;50.850;2.904;2023-08-06T11:34:44;24.30;58.30
21214;DHT22;10764;50.850;2.904;2023-08-06T11:37:11;23.80;58.80
21214;DHT22;10764;50.850;2.904;2023-08-06T11:39:38;23.90;58.70
21214;DHT22;10764;50.850;2.904;2023-08-06T11:42:12;24.00;58.10
21214;DHT22;10764;50.850;2.904;2023-08-06T11:44:41;23.80;57.40
21214;DHT22;10764;50.850;2.904;2023-08-06T11:47:16;23.90;56.60
21214;DHT22;10764;50.850;2.904;2023-08-06T11:49:47;24.00;58.10
21214;DHT22;10764;50.850;2.904;2023-08-06T11:52:24;24.40;55.60
21214;DHT22;10764;50.850;2.904;2023-08-06T11:55:04;24.10;55.30
21214;DHT22;10764;50.850;2.904;2023-08-06T11:57:44;24.30;57.80
21214;DHT22;10764;50.850;2.904;2023-08-06T12:00:12;24.10;57.70
21214;DHT22;10764;50.850;2.904;2023-08-06T12:02:44;24.10;57.30
21214;DHT22;10764;50.850;2.904;2023-08-06T12:05:12;24.20;57.60
21214;DHT22;10764;50.850;2.904;2023-08-06T12:07:42;24.20;57.50
21214;DHT22;10764;50.850;2.904;2023-08-06T12:10:10;24.40;57.70
21214;DHT22;10764;50.850;2.904;2023-08-06T12:12:37;23.90;57.50
21214;DHT22;10764;50.850;2.904;2023-08-06T12:15:06;24.00;57.30
21214;DHT22;10764;50.850;2.904;2023-08-06T12:17:34;24.10;56.80
21214;DHT22;10764;50.850;2.904;2023-08-06T12:20:02;24.30;57.10
21214;DHT22;10764;50.850;2.904;2023-08-06T12:22:31;23.80;57.10
21214;DHT22;10764;50.850;2.904;2023-08-06T12:25:03;24.20;57.30
21214;DHT22;10764;50.850;2.904;2023-08-06T12:27:37;23.90;56.70
21214;DHT22;10764;50.850;2.904;2023-08-06T12:30:05;24.00;57.30
21214;DHT22;10764;50.850;2.904;2023-08-06T12:32:32;23.90;56.70
21214;DHT22;10764;50.850;2.904;2023-08-06T12:34:59;24.10;57.30
21214;DHT22;10764;50.850;2.904;2023-08-06T12:37:28;24.10;57.30
21214;DHT22;10764;50.850;2.904;2023-08-06T12:39:55;24.20;57.10
21214;DHT22;10764;50.850;2.904;2023-08-06T12:42:22;24.30;56.90
21214;DHT22;10764;50.850;2.904;2023-08-06T12:44:51;23.90;56.60
21214;DHT22;10764;50.850;2.904;2023-08-06T12:47:18;24.20;57.00
21214;DHT22;10764;50.850;2.904;2023-08-06T12:49:45;24.20;57.10
21214;DHT22;10764;50.850;2.904;2023-08-06T12:52:12;24.60;56.70
21214;DHT22;10764;50.850;2.904;2023-08-06T12:54:42;24.10;56.80
21214;DHT22;10764;50.850;2.904;2023-08-06T12:57:09;24.00;56.90
21214;DHT22;10764;50.850;2.904;2023-08-06T12:59:35;24.10;56.80
21214;DHT22;10764;50.850;2.904;2023-08-06T13:02:04;24.10;57.20
21214;DHT22;10764;50.850;2.904;2023-08-06T13:04:31;23.90;56.80
21214;DHT22;10764;50.850;2.904;2023-08-06T13:06:58;23.90;57.00
21214;DHT22;10764;50.850;2.904;2023-08-06T13:09:25;24.00;57.20
21214;DHT22;10764;50.850;2.904;2023-08-06T13:11:54;24.00;57.30
21214;DHT22;10764;50.850;2.904;2023-08-06T13:14:22;23.90;57.10
21214;DHT22;10764;50.850;2.904;2023-08-06T13:16:49;24.00;57.50
21214;DHT22;10764;50.850;2.904;2023-08-06T13:19:15;24.00;57.50
21214;DHT22;10764;50.850;2.904;2023-08-06T13:24:16;24.00;57.50
21214;DHT22;10764;50.850;2.904;2023-08-06T13:26:43;24.20;57.20
21214;DHT22;10764;50.850;2.904;2023-08-06T13:29:10;23.90;57.00
21214;DHT22;10764;50.850;2.904;2023-08-06T13:31:37;23.90;57.00
21214;DHT22;10764;50.850;2.904;2023-08-06T13:34:04;24.10;57.00
21214;DHT22;10764;50.850;2.904;2023-08-06T13:36:31;24.10;57.10
21214;DHT22;10764;50.850;2.904;2023-08-06T13:38:58;24.20;56.90
21214;DHT22;10764;50.850;2.904;2023-08-06T13:41:25;24.10;57.00
21214;DHT22;10764;50.850;2.904;2023-08-06T13:43:52;23.90;57.00
21214;DHT22;10764;50.850;2.904;2023-08-06T13:46:19;24.20;57.20
21214;DHT22;10764;50.850;2.904;2023-08-06T13:48:48;23.70;57.00
21214;DHT22;10764;50.850;2.904;2023-08-06T13:51:18;23.80;57.10
21214;DHT22;10764;50.850;2.904;2023-08-06T13:53:45;24.00;57.10
21214;DHT22;10764;50.850;2.904;2023-08-06T13:56:12;23.80;57.10
21214;DHT22;10764;50.850;2.904;2023-08-06T13:58:41;23.90;57.20
21214;DHT22;10764;50.850;2.904;2023-08-06T14:01:10;24.10;57.00
21214;DHT22;10764;50.850;2.904;2023-08-06T14:03:37;23.90;56.90
21214;DHT22;10764;50.850;2.904;2023-08-06T14:06:04;23.60;56.80
21214;DHT22;10764;50.850;2.904;2023-08-06T14:08:31;23.90;56.90
21214;DHT22;10764;50.850;2.904;2023-08-06T14:10:58;23.90;57.20
21214;DHT22;10764;50.850;2.904;2023-08-06T14:13:25;24.00;57.50
21214;DHT22;10764;50.850;2.904;2023-08-06T14:15:52;23.80;57.40
21214;DHT22;10764;50.850;2.904;2023-08-06T14:18:19;24.00;57.70
21214;DHT22;10764;50.850;2.904;2023-08-06T14:20:46;23.70;57.60
21214;DHT22;10764;50.850;2.904;2023-08-06T14:23:13;23.90;57.50
21214;DHT22;10764;50.850;2.904;2023-08-06T14:25:40;23.90;57.60
21214;DHT22;10764;50.850;2.904;2023-08-06T14:28:07;23.90;57.70
21214;DHT22;10764;50.850;2.904;2023-08-06T14:30:34;23.80;57.80
21214;DHT22;10764;50.850;2.904;2023-08-06T14:33:02;24.10;57.90
21214;DHT22;10764;50.850;2.904;2023-08-06T14:35:47;24.10;57.80
21214;DHT22;10764;50.850;2.904;2023-08-06T14:38:14;24.30;57.70
21214;DHT22;10764;50.850;2.904;2023-08-06T14:40:41;24.00;57.40
21214;DHT22;10764;50.850;2.904;2023-08-06T14:43:07;24.30;57.50
21214;DHT22;10764;50.850;2.904;2023-08-06T14:45:40;24.10;57.30
21214;DHT22;10764;50.850;2.904;2023-08-06T14:48:07;23.90;57.50
21214;DHT22;10764;50.850;2.904;2023-08-06T14:50:34;24.30;57.40
21214;DHT22;10764;50.850;2.904;2023-08-06T14:53:02;24.30;58.00
21214;DHT22;10764;50.850;2.904;2023-08-06T14:55:31;24.10;57.50
21214;DHT22;10764;50.850;2.904;2023-08-06T14:57:58;24.40;57.50
21214;DHT22;10764;50.850;2.904;2023-08-06T15:00:25;24.10;57.10
21214;DHT22;10764;50.850;2.904;2023-08-06T15:02:52;24.30;57.10
21214;DHT22;10764;50.850;2.904;2023-08-06T15:05:19;24.20;56.90
21214;DHT22;10764;50.850;2.904;2023-08-06T15:07:46;24.30;56.80
21214;DHT22;10764;50.850;2.904;2023-08-06T15:10:14;24.60;57.20
21214;DHT22;10764;50.850;2.904;2023-08-06T15:12:53;24.00;56.50
21214;DHT22;10764;50.850;2.904;2023-08-06T15:15:20;24.30;56.50
21214;DHT22;10764;50.850;2.904;2023-08-06T15:17:48;24.50;56.70
21214;DHT22;10764;50.850;2.904;2023-08-06T15:20:15;24.60;56.60
21214;DHT22;10764;50.850;2.904;2023-08-06T15:22:42;24.50;56.30
21214;DHT22;10764;50.850;2.904;2023-08-06T15:25:09;24.40;56.30
21214;DHT22;10764;50.850;2.904;2023-08-06T15:27:36;25.10;56.30
21214;DHT22;10764;50.850;2.904;2023-08-06T15:30:04;24.70;56.20
21214;DHT22;10764;50.850;2.904;2023-08-06T15:32:31;24.80;55.70
21214;DHT22;10764;50.850;2.904;2023-08-06T15:34:58;24.70;56.80
21214;DHT22;10764;50.850;2.904;2023-08-06T15:37:25;24.60;55.90
21214;DHT22;10764;50.850;2.904;2023-08-06T15:39:52;24.30;55.90
21214;DHT22;10764;50.850;2.904;2023-08-06T15:42:19;24.60;56.10
21214;DHT22;10764;50.850;2.904;2023-08-06T15:44:46;24.40;56.30
21214;DHT22;10764;50.850;2.904;2023-08-06T15:47:13;24.30;56.20
21214;DHT22;10764;50.850;2.904;2023-08-06T15:49:40;24.60;56.50
21214;DHT22;10764;50.850;2.904;2023-08-06T15:52:07;24.40;56.20
21214;DHT22;10764;50.850;2.904;2023-08-06T15:54:34;24.00;55.20